Frazee, Minnesota
Current Conditions -  °F | °C
As of 12:35 AM on Tuesday 21 Oct 2014 (Local Time) from KDTL Reporting Station
Clear Clear  
Wind Chill: 38°   Ceiling: Unl
Heat Index: 43°   Visibility: 10mi
Dew Point: 37°   Wind: 8mph
Humidity: 81%   Direction: 130°SE
Pressure: 30.1"   Gusts: NA
Location:  46.73°N, 95.7°W
Report Text: KDTL 210535Z AUTO 13007KT 10SM CLR 06/03 A3010 RMK AO2
Loading
Personal Weather Stations






























Interactive Weather Map
Tropical Storm Tracking
New forecast layout! Learn more

10-Day Weather Forecast

Advertisements
Track Severe Weather on mobile